Time;durP1;ratioP1;P1;durP2;ratioP2;P2;SDS_P1;SDS_P2;PMS_P1;PMS_P2;Temp;Humidity;BMP_temperature;BMP_pressure;BME280_temperature;BME280_humidity;BME280_pressure;Samples;Min_cycle;Max_cycle;Signal;HPM_P1;HPM_P2
2021/09/12 19:01:41;;;;;;;0.00;0.00;;;;;;;23.46;100.00;99755.84;5052178;27;20396;-69
2021/09/12 19:04:10;;;;;;;0.00;0.00;;;;;;;23.31;100.00;99756.13;5019194;28;20056;-68
2021/09/12 19:06:36;;;;;;;0.00;0.00;;;;;;;23.21;100.00;99755.06;5032185;28;20037;-67
2021/09/12 19:09:05;;;;;;;0.00;0.00;;;;;;;23.14;100.00;99746.47;5037779;28;20045;-66
2021/09/12 19:11:34;;;;;;;0.00;0.00;;;;;;;23.13;100.00;99746.59;5050774;28;20060;-66
2021/09/12 19:14:03;;;;;;;0.00;0.00;;;;;;;23.10;100.00;99746.81;5034460;28;20041;-67
2021/09/12 19:16:30;;;;;;;0.00;0.00;;;;;;;23.08;100.00;99737.91;5035703;28;20052;-66
2021/09/12 19:19:00;;;;;;;0.00;0.00;;;;;;;23.14;100.00;99735.63;5035860;28;20091;-68
2021/09/12 19:21:27;;;;;;;0.00;0.00;;;;;;;23.09;100.00;99729.69;5036358;28;20176;-66
2021/09/12 19:23:52;;;;;;;0.00;0.00;;;;;;;23.10;100.00;99736.81;5037287;28;20386;-68
2021/09/12 19:26:18;;;;;;;0.00;0.00;;;;;;;23.10;100.00;99731.41;5033037;28;20037;-67
2021/09/12 19:28:45;;;;;;;0.00;0.00;;;;;;;23.08;100.00;99729.81;5022888;28;20496;-64
2021/09/12 19:31:12;;;;;;;0.00;0.00;;;;;;;23.10;100.00;99736.81;5042828;28;20505;-64
2021/09/12 19:33:42;;;;;;;0.00;0.00;;;;;;;23.09;100.00;99736.97;5041535;28;20073;-62
2021/09/12 19:36:11;;;;;;;0.00;0.00;;;;;;;23.20;100.00;99739.75;5035481;28;20091;-68
2021/09/12 19:38:39;;;;;;;0.00;0.00;;;;;;;23.27;100.00;99741.06;5002571;28;20176;-71
2021/09/12 19:41:07;;;;;;;0.00;0.00;;;;;;;23.27;100.00;99741.97;5072160;28;20098;-64
2021/09/12 19:43:34;;;;;;;0.00;0.00;;;;;;;23.27;100.00;99736.53;5071896;28;20064;-72
2021/09/12 19:46:03;;;;;;;0.00;0.00;;;;;;;23.27;100.00;99741.97;5039366;28;20132;-73
2021/09/12 19:48:30;;;;;;;0.00;0.00;;;;;;;23.26;100.00;99740.19;5022781;28;20049;-69
2021/09/12 19:50:56;;;;;;;0.00;0.00;;;;;;;23.25;100.00;99743.88;5034061;28;20044;-74
2021/09/12 19:53:22;;;;;;;0.00;0.00;;;;;;;23.24;100.00;99739.47;5049179;28;20045;-72
2021/09/12 19:55:48;;;;;;;0.00;0.00;;;;;;;23.23;100.00;99735.03;5031515;28;20045;-71
2021/09/12 19:58:14;;;;;;;0.00;0.00;;;;;;;23.23;100.00;99735.03;5042605;28;20052;-71
2021/09/12 20:00:40;;;;;;;0.00;0.00;;;;;;;23.25;100.00;99743.03;5037075;28;20045;-73
2021/09/12 20:03:06;;;;;;;0.00;0.00;;;;;;;23.21;100.00;99730.72;5026216;28;20519;-72
2021/09/12 20:05:32;;;;;;;0.00;0.00;;;;;;;23.20;100.00;99726.22;5057367;28;20072;-75
2021/09/12 20:07:58;;;;;;;0.00;0.00;;;;;;;23.23;100.00;99737.75;5042319;28;20056;-70
2021/09/12 20:10:23;;;;;;;0.00;0.00;;;;;;;23.26;100.00;99737.50;5036283;28;20049;-72
2021/09/12 20:12:49;;;;;;;0.00;0.00;;;;;;;23.28;100.00;99740.09;5027258;28;20123;-72
2021/09/12 20:15:15;;;;;;;0.00;0.00;;;;;;;23.27;100.00;99728.41;5028925;28;20045;-71
2021/09/12 20:17:41;;;;;;;0.00;0.00;;;;;;;23.29;100.00;99737.28;5028757;28;20612;-74
2021/09/12 20:20:08;;;;;;;0.00;0.00;;;;;;;23.28;100.00;99732.84;5010125;28;20053;-69
2021/09/12 20:22:34;;;;;;;0.00;0.00;;;;;;;23.29;100.00;99731.03;5043729;28;20053;-70
2021/09/12 20:25:01;;;;;;;0.00;0.00;;;;;;;23.28;100.00;99740.97;5012146;28;20451;-72
2021/09/12 20:27:27;;;;;;;0.00;0.00;;;;;;;23.28;100.00;99732.84;5022490;28;20529;-73
2021/09/12 20:29:53;;;;;;;0.00;0.00;;;;;;;23.24;100.00;99731.34;5041623;28;20053;-67
2021/09/12 20:32:19;;;;;;;0.00;0.00;;;;;;;23.23;100.00;99735.03;5019589;28;20128;-65
2021/09/12 20:34:46;;;;;;;0.00;0.00;;;;;;;23.26;100.00;99733.94;5016894;28;20136;-65
2021/09/12 20:37:12;;;;;;;0.00;0.00;;;;;;;23.25;100.00;99735.78;5007659;28;20057;-65
2021/09/12 20:39:37;;;;;;;0.00;0.00;;;;;;;23.26;100.00;99734.78;5028231;28;20360;-66
2021/09/12 20:42:04;;;;;;;0.00;0.00;;;;;;;23.26;100.00;99737.50;5026594;28;20064;-69
2021/09/12 20:44:30;;;;;;;0.00;0.00;;;;;;;23.26;100.00;99740.19;5023096;28;20058;-68
2021/09/12 20:46:56;;;;;;;0.00;0.00;;;;;;;23.27;100.00;99735.66;5022477;28;20041;-63
2021/09/12 20:49:23;;;;;;;0.00;0.00;;;;;;;23.26;100.00;99733.94;5060222;28;20312;-66
2021/09/12 20:51:49;;;;;;;0.00;0.00;;;;;;;23.22;100.00;99727.88;5025123;28;20052;-66
2021/09/12 20:54:14;;;;;;;0.00;0.00;;;;;;;23.22;100.00;99737.84;5009780;28;20045;-68
2021/09/12 20:56:40;;;;;;;0.00;0.00;;;;;;;23.23;100.00;99728.75;5017547;28;20045;-63
2021/09/12 20:59:06;;;;;;;0.00;0.00;;;;;;;23.21;100.00;99739.69;5011748;28;20087;-65
2021/09/12 21:01:32;;;;;;;0.00;0.00;;;;;;;23.21;100.00;99725.28;5025454;28;20540;-64
2021/09/12 21:03:58;;;;;;;0.00;0.00;;;;;;;23.21;100.00;99722.59;5015931;28;20041;-65
2021/09/12 21:06:24;;;;;;;0.00;0.00;;;;;;;23.21;100.00;99734.25;5022895;28;20045;-65
2021/09/12 21:08:53;;;;;;;0.00;0.00;;;;;;;23.20;100.00;99724.41;5028047;28;20144;-63
2021/09/12 21:11:20;;;;;;;0.00;0.00;;;;;;;23.21;100.00;99734.25;5025563;28;20041;-67
2021/09/12 21:13:47;;;;;;;0.00;0.00;;;;;;;23.21;100.00;99730.72;5027907;28;20033;-64
2021/09/12 21:16:13;;;;;;;0.00;0.00;;;;;;;23.20;100.00;99724.41;5030032;28;20041;-65
2021/09/12 21:18:39;;;;;;;0.00;0.00;;;;;;;23.22;100.00;99732.44;5021116;28;20133;-65
2021/09/12 21:21:06;;;;;;;0.00;0.00;;;;;;;23.21;100.00;99728.84;5024944;28;20497;-67
2021/09/12 21:23:32;;;;;;;0.00;0.00;;;;;;;23.22;100.00;99729.72;5020517;28;20071;-65
2021/09/12 21:25:58;;;;;;;0.00;0.00;;;;;;;23.19;100.00;99724.50;5021192;28;20048;-66
2021/09/12 21:28:23;;;;;;;0.00;0.00;;;;;;;23.23;100.00;99734.16;5026756;28;20041;-68
2021/09/12 21:30:50;;;;;;;0.00;0.00;;;;;;;23.22;100.00;99732.44;5017411;28;20247;-66
2021/09/12 21:33:17;;;;;;;0.00;0.00;;;;;;;23.22;100.00;99729.72;5026642;28;20049;-66
2021/09/12 21:35:43;;;;;;;0.00;0.00;;;;;;;23.21;100.00;99725.28;5026500;28;20059;-66
2021/09/12 21:38:09;;;;;;;0.00;0.00;;;;;;;23.21;100.00;99731.56;5022964;28;20045;-67
2021/09/12 21:40:36;;;;;;;0.00;0.00;;;;;;;23.21;100.00;99725.28;5019265;28;20052;-67
2021/09/12 21:43:02;;;;;;;0.00;0.00;;;;;;;23.20;100.00;99727.13;5026027;28;20483;-67
2021/09/12 21:45:27;;;;;;;0.00;0.00;;;;;;;23.21;100.00;99723.44;5011234;28;20041;-67
2021/09/12 21:47:53;;;;;;;0.00;0.00;;;;;;;23.22;100.00;99727.88;5025638;28;20472;-68
2021/09/12 21:50:19;;;;;;;0.00;0.00;;;;;;;23.23;100.00;99724.22;5011018;28;20463;-67
2021/09/12 21:52:45;;;;;;;0.00;0.00;;;;;;;23.23;100.00;99724.22;5027372;28;20045;-67
2021/09/12 21:55:11;;;;;;;0.00;0.00;;;;;;;23.25;100.00;99718.69;5008683;28;20033;-66
2021/09/12 21:57:38;;;;;;;0.00;0.00;;;;;;;23.24;100.00;99711.53;5025733;28;20034;-64
2021/09/12 22:00:16;;;;;;;0.00;0.00;;;;;;;23.23;100.00;99709.81;5041407;28;20142;-65
2021/09/12 22:02:44;;;;;;;0.00;0.00;;;;;;;23.27;100.00;99714.00;4989085;28;20092;-66
2021/09/12 22:05:13;;;;;;;0.00;0.00;;;;;;;23.23;100.00;99707.97;5007835;28;20115;-67
2021/09/12 22:07:39;;;;;;;0.00;0.00;;;;;;;23.27;100.00;99714.00;5021675;28;20077;-67
2021/09/12 22:10:06;;;;;;;0.00;0.00;;;;;;;23.26;100.00;99707.72;5024677;28;20088;-69
2021/09/12 22:12:33;;;;;;;0.00;0.00;;;;;;;23.26;100.00;99705.03;5022540;28;20065;-67
2021/09/12 22:14:59;;;;;;;0.00;0.00;;;;;;;23.25;100.00;99703.28;4990487;28;20064;-67
2021/09/12 22:17:25;;;;;;;0.00;0.00;;;;;;;23.26;100.00;99702.31;5023606;28;20038;-67
2021/09/12 22:19:53;;;;;;;0.00;0.00;;;;;;;23.24;100.00;99692.59;5018148;28;20046;-67
2021/09/12 22:22:23;;;;;;;0.00;0.00;;;;;;;23.28;100.00;99696.78;5026475;28;20059;-65
2021/09/12 22:24:49;;;;;;;0.17;0.00;;;;;;;23.24;100.00;99689.88;5017988;28;20044;-66
2021/09/12 22:27:18;;;;;;;0.00;0.00;;;;;;;23.28;100.00;99707.63;5025059;28;20046;-66
2021/09/12 22:29:44;;;;;;;0.00;0.00;;;;;;;23.27;100.00;99704.06;5020184;28;20045;-65
2021/09/12 22:32:11;;;;;;;0.00;0.00;;;;;;;23.21;100.00;99688.25;5008145;28;20363;-65
2021/09/12 22:34:39;;;;;;;0.00;0.00;;;;;;;23.23;100.00;99697.16;5007796;28;20049;-63
2021/09/12 22:37:05;;;;;;;0.00;0.00;;;;;;;23.15;100.00;99682.41;5023312;28;20107;-64
